Time;durP1;ratioP1;P1;durP2;ratioP2;P2;SDS_P1;SDS_P2;PMS_P1;PMS_P2;Temp;Humidity;BMP_temperature;BMP_pressure;BME280_temperature;BME280_humidity;BME280_pressure;Samples;Min_cycle;Max_cycle;Signal;HPM_P1;HPM_P2
2022/12/31 00:00:12;;;;;;;8.82;1.92;;;27.30;99.90;;;;;;5041701;28;20397;-86
2022/12/31 00:02:39;;;;;;;8.63;2.10;;;27.70;99.20;;;;;;5049590;28;20384;-87
2022/12/31 00:05:06;;;;;;;8.48;2.10;;;27.70;98.60;;;;;;5048041;28;20394;-85
2022/12/31 00:07:36;;;;;;;7.45;2.22;;;27.70;98.10;;;;;;5045897;28;20937;-83
2022/12/31 00:10:04;;;;;;;6.45;2.13;;;27.60;97.30;;;;;;5051695;28;20411;-87
2022/12/31 00:12:32;;;;;;;7.47;2.20;;;27.60;97.60;;;;;;5050017;28;20411;-87
2022/12/31 00:14:59;;;;;;;7.28;2.00;;;27.70;97.50;;;;;;5051317;28;20390;-83
2022/12/31 00:17:25;;;;;;;6.32;2.28;;;27.70;97.50;;;;;;5056760;28;20383;-86
2022/12/31 00:19:52;;;;;;;5.35;1.90;;;27.80;97.30;;;;;;5049366;28;20476;-87
2022/12/31 00:22:19;;;;;;;7.30;2.03;;;28.00;97.10;;;;;;5051557;28;20853;-80
2022/12/31 00:24:46;;;;;;;8.17;2.07;;;28.10;96.80;;;;;;5042335;28;20478;-88
2022/12/31 00:27:13;;;;;;;6.82;1.80;;;28.10;96.00;;;;;;5050568;28;20864;-89
2022/12/31 00:29:40;;;;;;;7.00;2.20;;;28.20;96.40;;;;;;5051640;28;20422;-81
2022/12/31 00:32:07;;;;;;;7.03;2.10;;;28.60;96.20;;;;;;5049162;28;20452;-89
2022/12/31 00:34:34;;;;;;;5.38;1.58;;;29.20;95.70;;;;;;5050624;28;20471;-87
2022/12/31 00:37:01;;;;;;;5.80;1.80;;;29.90;94.30;;;;;;5046365;28;20394;-83
2022/12/31 00:39:28;;;;;;;6.07;1.70;;;30.50;92.30;;;;;;5049541;28;20449;-80
2022/12/31 00:41:55;;;;;;;4.87;1.90;;;30.80;91.60;;;;;;5045038;28;20380;-89
2022/12/31 00:44:22;;;;;;;6.73;1.83;;;31.80;90.50;;;;;;5051746;28;20427;-84
2022/12/31 00:46:49;;;;;;;5.53;1.80;;;32.00;88.00;;;;;;5037491;28;20395;-82
2022/12/31 00:49:16;;;;;;;5.22;2.00;;;31.70;87.00;;;;;;5052800;28;20395;-81
2022/12/31 00:51:45;;;;;;;5.75;1.73;;;31.50;87.40;;;;;;5039670;28;20757;-84
2022/12/31 00:54:12;;;;;;;5.25;1.80;;;31.50;84.90;;;;;;5061670;28;20383;-80
2022/12/31 00:56:39;;;;;;;4.90;1.60;;;31.60;82.50;;;;;;5045835;28;20392;-84
2022/12/31 00:59:06;;;;;;;6.20;1.70;;;31.80;81.70;;;;;;5048074;28;20407;-86
2022/12/31 01:01:36;;;;;;;5.00;1.73;;;32.00;82.10;;;;;;5043304;28;20401;-84
2022/12/31 01:04:14;;;;;;;5.07;1.77;;;31.90;81.00;;;;;;5043626;28;20449;-88
2022/12/31 01:06:43;;;;;;;6.50;1.83;;;31.00;84.20;;;;;;5067057;28;20857;-84
2022/12/31 01:09:12;;;;;;;6.10;1.55;;;31.00;84.10;;;;;;5060600;28;20414;-86
2022/12/31 01:11:41;;;;;;;4.00;1.67;;;31.00;80.10;;;;;;5056550;28;20388;-82
2022/12/31 01:14:08;;;;;;;4.25;1.60;;;30.70;83.60;;;;;;5047702;28;20439;-88
2022/12/31 01:16:40;;;;;;;4.38;1.48;;;30.80;85.00;;;;;;5040171;28;20389;-83
2022/12/31 01:19:10;;;;;;;4.17;1.60;;;31.30;80.70;;;;;;5066343;28;20784;-87
2022/12/31 01:21:39;;;;;;;3.95;1.58;;;31.50;80.00;;;;;;5047204;28;20382;-82
2022/12/31 01:24:07;;;;;;;6.70;1.70;;;31.50;77.60;;;;;;5068371;28;20382;-88
2022/12/31 01:26:34;;;;;;;3.03;1.50;;;31.40;76.80;;;;;;5066813;28;20366;-84
2022/12/31 01:29:01;;;;;;;4.50;1.58;;;31.00;77.50;;;;;;5067480;28;20398;-84
2022/12/31 01:31:28;;;;;;;4.15;1.50;;;30.80;79.00;;;;;;5065827;28;20374;-83
2022/12/31 01:33:56;;;;;;;5.32;1.50;;;30.60;80.10;;;;;;5067822;28;20405;-90
2022/12/31 01:36:26;;;;;;;5.47;1.65;;;30.50;80.90;;;;;;5065202;28;20395;-85
2022/12/31 01:38:55;;;;;;;4.47;1.58;;;30.40;80.40;;;;;;5058760;28;20395;-87
2022/12/31 01:41:25;;;;;;;6.43;1.77;;;29.80;82.50;;;;;;5051758;28;20374;-82
2022/12/31 01:43:55;;;;;;;3.95;1.45;;;29.90;82.30;;;;;;5047352;28;20785;-82
2022/12/31 01:46:52;;;;;;;5.15;1.80;;;29.90;81.70;;;;;;5065495;28;20381;-81
2022/12/31 01:49:40;;;;;;;4.25;1.30;;;29.70;82.50;;;;;;5065175;28;20770;-84
2022/12/31 01:52:23;;;;;;;5.80;1.60;;;29.40;82.90;;;;;;5036403;28;20404;-86
2022/12/31 01:55:02;;;;;;;4.80;1.40;;;29.10;84.70;;;;;;5040730;28;20388;-85
2022/12/31 01:57:30;;;;;;;5.53;1.67;;;28.80;85.80;;;;;;5046856;28;20478;-85
2022/12/31 01:59:59;;;;;;;4.22;1.63;;;28.60;87.30;;;;;;5051180;28;20392;-86
2022/12/31 02:02:27;;;;;;;4.25;1.40;;;28.30;88.10;;;;;;5062659;28;20469;-84
2022/12/31 02:04:57;;;;;;;4.70;1.50;;;27.90;89.80;;;;;;5047768;28;20835;-84
2022/12/31 02:07:24;;;;;;;5.15;1.50;;;27.70;90.10;;;;;;5042543;28;20435;-85
2022/12/31 02:09:52;;;;;;;5.22;1.60;;;27.60;90.40;;;;;;5044092;28;20921;-85
2022/12/31 02:12:20;;;;;;;7.05;1.75;;;27.60;90.80;;;;;;5050127;28;20428;-84
2022/12/31 02:14:51;;;;;;;5.03;1.45;;;27.60;91.30;;;;;;5047403;28;20396;-86
2022/12/31 02:17:20;;;;;;;5.15;1.50;;;27.60;91.40;;;;;;5038297;28;20391;-84
2022/12/31 02:20:30;;;;;;;5.45;1.60;;;27.60;92.30;;;;;;5046782;28;20785;-88
2022/12/31 02:23:22;;;;;;;4.30;1.60;;;27.40;93.20;;;;;;5047034;28;20413;-82
2022/12/31 02:25:55;;;;;;;5.35;1.83;;;27.20;93.80;;;;;;5045102;28;20387;-84
2022/12/31 02:28:43;;;;;;;4.95;1.60;;;27.10;94.30;;;;;;5051798;28;20506;-84
2022/12/31 02:31:32;;;;;;;6.72;1.67;;;27.10;94.50;;;;;;5052373;28;20478;-85
2022/12/31 02:34:37;;;;;;;4.75;1.60;;;27.20;95.20;;;;;;5042075;28;20382;-83
2022/12/31 02:37:08;;;;;;;4.97;1.52;;;27.40;95.50;;;;;;5040954;28;20473;-83
2022/12/31 02:39:36;;;;;;;5.20;1.40;;;27.70;94.90;;;;;;5045694;28;20472;-86
2022/12/31 02:42:03;;;;;;;5.20;1.50;;;27.80;94.60;;;;;;5051611;28;20395;-87
2022/12/31 02:44:34;;;;;;;5.18;1.65;;;27.80;95.10;;;;;;5052970;28;20796;-83
2022/12/31 02:47:19;;;;;;;4.93;1.55;;;27.90;95.60;;;;;;5044380;28;20384;-88
2022/12/31 02:50:12;;;;;;;3.60;1.30;;;28.00;95.20;;;;;;5054216;28;20399;-85
2022/12/31 02:53:08;;;;;;;4.97;1.63;;;28.10;95.30;;;;;;5046906;28;20468;-87
2022/12/31 02:55:35;;;;;;;3.42;1.40;;;28.70;94.70;;;;;;5058367;28;20760;-88
2022/12/31 02:58:19;;;;;;;4.60;1.50;;;29.20;94.00;;;;;;5052125;28;20442;-89
2022/12/31 03:03:37;;;;;;;4.03;1.40;;;29.30;92.70;;;;;;5072099;28;20416;-87
2022/12/31 03:06:05;;;;;;;4.70;1.60;;;29.20;92.80;;;;;;5052318;28;20407;-87
2022/12/31 03:09:11;;;;;;;4.45;1.50;;;28.90;93.00;;;;;;5050905;28;20435;-88
2022/12/31 03:12:45;;;;;;;5.03;1.60;;;28.60;93.40;;;;;;5051118;28;20933;-86
2022/12/31 03:14:05;;;;;;;3.75;1.67;;;28.40;94.30;;;;;;5051857;28;20391;-88
2022/12/31 03:16:33;;;;;;;3.38;1.58;;;27.90;95.20;;;;;;5051154;28;20407;-90
2022/12/31 03:27:15;;;;;;;4.15;1.23;;;27.50;96.10;;;;;;5039032;28;20424;-88
2022/12/31 03:29:42;;;;;;;2.63;1.10;;;27.60;95.50;;;;;;5052124;28;20376;-86
2022/12/31 03:32:09;;;;;;;2.20;1.10;;;27.80;95.60;;;;;;5051735;28;20371;-87
2022/12/31 03:34:36;;;;;;;2.72;1.33;;;28.30;95.00;;;;;;5052543;28;20376;-87
2022/12/31 03:37:03;;;;;;;2.17;1.13;;;28.70;94.50;;;;;;5071421;28;20370;-88
2022/12/31 03:39:30;;;;;;;2.40;1.10;;;29.00;93.80;;;;;;5070648;28;20383;-88
2022/12/31 03:41:57;;;;;;;2.63;1.35;;;29.70;93.80;;;;;;5071663;28;20366;-89
2022/12/31 03:44:23;;;;;;;2.30;1.20;;;30.10;92.30;;;;;;5070145;28;20382;-90
2022/12/31 03:46:50;;;;;;;3.72;1.33;;;29.90;92.10;;;;;;5053249;28;20397;-89
2022/12/31 03:49:17;;;;;;;3.15;1.15;;;29.90;92.10;;;;;;5069586;28;20449;-89
2022/12/31 03:51:44;;;;;;;1.85;1.10;;;30.00;92.30;;;;;;5062013;28;20848;-89
2022/12/31 03:54:11;;;;;;;2.38;1.10;;;29.90;92.10;;;;;;5050953;28;20463;-88
2022/12/31 03:56:38;;;;;;;2.40;1.30;;;29.80;92.30;;;;;;5051074;28;20429;-89
2022/12/31 03:59:05;;;;;;;2.25;1.00;;;29.70;92.40;;;;;;5050760;28;20388;-87
2022/12/31 04:01:32;;;;;;;2.88;1.30;;;29.90;92.60;;;;;;5050999;28;20372;-89
2022/12/31 04:03:59;;;;;;;3.22;1.30;;;30.40;91.50;;;;;;5051394;28;20434;-89
2022/12/31 04:06:26;;;;;;;2.60;1.25;;;31.30;90.90;;;;;;5051001;28;20422;-88
2022/12/31 04:08:53;;;;;;;3.78;1.20;;;32.30;87.10;;;;;;5050734;28;20411;-88
2022/12/31 04:11:20;;;;;;;3.25;1.40;;;32.40;86.30;;;;;;5051051;28;20382;-89
2022/12/31 04:13:47;;;;;;;2.97;1.25;;;32.90;85.80;;;;;;5051228;28;21033;-89
2022/12/31 04:16:13;;;;;;;5.05;1.50;;;32.60;86.70;;;;;;5051219;28;20451;-87
2022/12/31 04:18:40;;;;;;;4.03;1.45;;;31.90;87.50;;;;;;5051979;28;20454;-88
2022/12/31 04:21:07;;;;;;;4.07;1.60;;;31.40;88.80;;;;;;5051276;28;20471;-89
2022/12/31 04:23:34;;;;;;;3.83;1.40;;;31.00;90.00;;;;;;5051380;28;20387;-89
2022/12/31 04:26:01;;;;;;;3.78;1.40;;;31.30;90.10;;;;;;5050650;28;20380;-89
2022/12/31 04:28:28;;;;;;;3.77;1.47;;;31.70;88.90;;;;;;5050419;28;20737;-89
2022/12/31 04:30:55;;;;;;;3.47;1.33;;;32.10;87.50;;;;;;5060809;28;20370;-89
2022/12/31 04:33:22;;;;;;;3.97;1.40;;;31.80;87.00;;;;;;5052941;28;20372;-90
2022/12/31 04:35:49;;;;;;;4.13;1.53;;;31.10;88.40;;;;;;5050498;28;20371;-88
2022/12/31 04:38:16;;;;;;;5.80;1.33;;;30.50;89.40;;;;;;5050275;28;20848;-88
2022/12/31 04:43:30;;;;;;;3.97;1.70;;;29.40;91.50;;;;;;5039039;28;20747;-87
2022/12/31 04:45:57;;;;;;;4.07;1.35;;;29.20;91.60;;;;;;5051069;28;20396;-89
2022/12/31 04:48:23;;;;;;;3.90;1.50;;;28.80;92.10;;;;;;5050723;28;20404;-88
2022/12/31 04:50:50;;;;;;;3.67;1.30;;;28.70;92.70;;;;;;5032828;28;20479;-87
2022/12/31 04:53:17;;;;;;;5.28;1.52;;;28.80;92.50;;;;;;5050358;28;20459;-89
2022/12/31 04:55:45;;;;;;;3.58;1.50;;;28.90;92.60;;;;;;5050128;28;20864;-88
2022/12/31 04:58:12;;;;;;;4.63;1.40;;;29.00;92.30;;;;;;5058002;28;20903;-87
2022/12/31 05:00:39;;;;;;;3.63;1.50;;;29.30;92.40;;;;;;5068477;28;20460;-89
2022/12/31 05:03:06;;;;;;;3.28;1.30;;;29.60;91.50;;;;;;5050840;28;20386;-90
2022/12/31 05:05:37;;;;;;;4.00;1.40;;;30.00;90.80;;;;;;5063794;28;20381;-90
2022/12/31 05:08:04;;;;;;;3.35;1.40;;;30.30;90.40;;;;;;5059193;28;20410;-88
2022/12/31 05:10:31;;;;;;;4.67;1.40;;;30.80;90.00;;;;;;5072420;28;20362;-89
2022/12/31 05:12:58;;;;;;;4.72;1.40;;;30.90;88.10;;;;;;5075096;28;20873;-90
2022/12/31 05:15:25;;;;;;;4.57;1.60;;;30.60;88.50;;;;;;5071084;28;20394;-88
2022/12/31 05:17:52;;;;;;;4.83;1.70;;;30.70;88.70;;;;;;5064413;28;20382;-89
2022/12/31 05:20:19;;;;;;;5.85;1.58;;;30.60;88.40;;;;;;5071007;28;20385;-87
2022/12/31 05:22:46;;;;;;;4.45;1.20;;;30.40;88.80;;;;;;5071600;28;20410;-88
2022/12/31 05:25:13;;;;;;;3.67;1.13;;;29.80;89.70;;;;;;5054498;28;20910;-90
2022/12/31 05:27:40;;;;;;;3.65;1.30;;;29.60;90.10;;;;;;5053253;28;20475;-89
2022/12/31 05:30:08;;;;;;;3.97;1.40;;;29.70;90.20;;;;;;5053985;28;20877;-89
2022/12/31 05:32:35;;;;;;;3.88;1.20;;;29.40;90.60;;;;;;5050544;28;20371;-90
2022/12/31 05:35:02;;;;;;;4.78;1.13;;;29.10;91.10;;;;;;5051355;28;20386;-89
2022/12/31 05:37:30;;;;;;;4.40;1.23;;;29.00;90.70;;;;;;5050929;28;20486;-90
2022/12/31 05:39:57;;;;;;;2.90;1.20;;;29.00;91.20;;;;;;5051325;28;20384;-90
2022/12/31 05:42:24;;;;;;;3.03;1.25;;;28.80;91.70;;;;;;5049859;28;20387;-89
2022/12/31 05:44:51;;;;;;;3.75;1.30;;;28.70;91.70;;;;;;5049806;28;20376;-88
2022/12/31 05:47:18;;;;;;;5.13;1.40;;;28.40;91.70;;;;;;5050011;28;20406;-88
2022/12/31 05:49:46;;;;;;;3.53;1.30;;;28.30;92.20;;;;;;5051504;28;20371;-90
2022/12/31 05:52:13;;;;;;;5.93;1.50;;;28.10;92.10;;;;;;5055924;28;20391;-90
2022/12/31 05:54:40;;;;;;;7.30;1.73;;;28.10;92.50;;;;;;5055161;28;20937;-87
2022/12/31 05:57:07;;;;;;;4.97;1.70;;;27.90;92.80;;;;;;5073580;28;20381;-90
2022/12/31 05:59:34;;;;;;;3.67;1.55;;;27.80;93.30;;;;;;5055735;28;20877;-89
2022/12/31 06:02:01;;;;;;;5.60;1.60;;;27.80;93.40;;;;;;5061017;28;20747;-90
2022/12/31 06:04:28;;;;;;;5.88;1.30;;;27.60;93.60;;;;;;5053855;28;20775;-90
2022/12/31 06:06:55;;;;;;;4.47;1.63;;;27.60;93.60;;;;;;5053485;28;20395;-90
2022/12/31 06:09:22;;;;;;;6.00;2.97;;;27.60;93.70;;;;;;5053789;28;20399;-88
2022/12/31 06:11:50;;;;;;;5.05;1.80;;;27.60;93.80;;;;;;5053709;28;20360;-89
2022/12/31 06:14:17;;;;;;;7.57;1.50;;;27.50;93.90;;;;;;5053535;28;20383;-89
2022/12/31 06:16:44;;;;;;;4.60;1.60;;;27.40;94.00;;;;;;5053526;28;20420;-89
2022/12/31 06:19:11;;;;;;;6.78;1.90;;;27.30;93.80;;;;;;5073251;28;20879;-88
2022/12/31 06:21:38;;;;;;;6.82;2.10;;;27.20;93.90;;;;;;5058121;28;20414;-90
2022/12/31 06:24:06;;;;;;;4.90;1.60;;;27.10;94.30;;;;;;5052943;28;20391;-88
2022/12/31 06:26:32;;;;;;;5.90;1.98;;;27.00;94.50;;;;;;5035467;28;20398;-88
2022/12/31 06:28:59;;;;;;;7.45;3.85;;;27.00;94.30;;;;;;5035012;28;20406;-88
2022/12/31 06:31:26;;;;;;;6.63;2.28;;;26.90;94.30;;;;;;5052705;28;20375;-86
2022/12/31 06:33:53;;;;;;;6.00;1.90;;;27.00;94.50;;;;;;5053191;28;20379;-90
2022/12/31 06:36:21;;;;;;;6.60;1.95;;;27.00;94.60;;;;;;5065515;28;20374;-89
2022/12/31 06:38:48;;;;;;;5.60;1.73;;;27.00;94.60;;;;;;5052541;28;20378;-90
2022/12/31 06:41:17;;;;;;;5.70;1.70;;;27.10;94.50;;;;;;5052740;28;20379;-86
2022/12/31 06:43:44;;;;;;;8.85;2.05;;;27.10;94.40;;;;;;5062015;28;20379;-89
2022/12/31 06:46:14;;;;;;;7.38;2.17;;;27.10;94.50;;;;;;5071249;28;20374;-87
2022/12/31 06:48:43;;;;;;;5.85;1.50;;;27.10;94.30;;;;;;5071823;28;20782;-88
2022/12/31 06:51:18;;;;;;;7.35;2.03;;;27.10;94.30;;;;;;5067695;28;20429;-88
2022/12/31 06:53:47;;;;;;;4.82;1.58;;;27.20;94.40;;;;;;5052391;28;20376;-89
2022/12/31 06:56:17;;;;;;;8.45;1.90;;;27.10;94.40;;;;;;5065315;28;20382;-89
2022/12/31 06:58:45;;;;;;;6.90;2.00;;;27.20;94.50;;;;;;5053337;28;20427;-87
2022/12/31 07:01:18;;;;;;;7.47;2.30;;;27.30;94.50;;;;;;5052237;28;20387;-88
2022/12/31 07:04:00;;;;;;;6.63;2.03;;;27.80;94.40;;;;;;5033227;28;20475;-88
2022/12/31 07:06:52;;;;;;;6.72;2.03;;;28.80;93.10;;;;;;5035330;28;20441;-87
2022/12/31 07:09:44;;;;;;;6.70;2.13;;;29.30;91.90;;;;;;5053057;28;20490;-89
2022/12/31 07:12:34;;;;;;;6.10;2.00;;;29.40;91.20;;;;;;5052579;28;20716;-89
2022/12/31 07:15:09;;;;;;;7.63;2.30;;;29.50;91.40;;;;;;5053341;28;20368;-87
2022/12/31 07:17:41;;;;;;;7.80;2.40;;;29.80;90.80;;;;;;5052072;28;20411;-90
2022/12/31 07:20:14;;;;;;;6.43;2.22;;;30.10;90.20;;;;;;5051597;28;20403;-88
2022/12/31 07:22:41;;;;;;;7.15;2.00;;;30.50;88.90;;;;;;5051556;28;20383;-87
2022/12/31 07:25:14;;;;;;;4.97;1.95;;;30.90;88.00;;;;;;5051528;28;20763;-89
2022/12/31 07:28:05;;;;;;;6.80;2.00;;;30.70;88.30;;;;;;5051941;28;20954;-88
2022/12/31 07:30:50;;;;;;;6.85;2.00;;;31.10;87.30;;;;;;5039096;28;20380;-89
2022/12/31 07:33:38;;;;;;;8.13;1.92;;;31.30;86.20;;;;;;5051760;28;20372;-87
2022/12/31 07:36:27;;;;;;;6.80;1.98;;;31.20;85.40;;;;;;5064648;28;20406;-87
2022/12/31 07:39:00;;;;;;;7.50;2.10;;;31.00;85.90;;;;;;5051366;28;20362;-89
2022/12/31 07:41:54;;;;;;;7.15;2.13;;;30.80;86.00;;;;;;5067474;28;20775;-88
2022/12/31 07:44:58;;;;;;;8.70;2.00;;;30.60;86.10;;;;;;5052947;28;20375;-89
2022/12/31 07:47:27;;;;;;;4.57;1.80;;;30.40;84.90;;;;;;5070790;28;20485;-89
2022/12/31 07:49:55;;;;;;;5.40;1.65;;;30.40;84.70;;;;;;5058761;28;20382;-88
2022/12/31 07:52:23;;;;;;;4.75;1.80;;;30.40;84.60;;;;;;5056942;28;20367;-88
2022/12/31 07:54:50;;;;;;;5.20;1.60;;;30.20;84.60;;;;;;5038231;28;20930;-89
2022/12/31 07:57:19;;;;;;;5.55;1.63;;;29.90;86.00;;;;;;5051323;28;20858;-88
2022/12/31 08:00:04;;;;;;;5.90;2.13;;;29.60;86.30;;;;;;5051188;28;20379;-90
2022/12/31 08:02:49;;;;;;;6.43;2.00;;;29.20;87.20;;;;;;5051077;28;20372;-90
2022/12/31 08:05:42;;;;;;;5.90;2.95;;;28.90;88.40;;;;;;5063617;28;20376;-88
2022/12/31 08:08:42;;;;;;;7.57;3.97;;;28.80;88.90;;;;;;5050376;28;20402;-89
2022/12/31 08:11:18;;;;;;;7.25;2.00;;;28.60;89.90;;;;;;5040283;28;20461;-87
2022/12/31 08:13:45;;;;;;;9.07;4.07;;;28.30;90.30;;;;;;5055149;28;20411;-90
2022/12/31 08:16:13;;;;;;;8.65;4.95;;;28.10;90.30;;;;;;5051516;28;20454;-87
2022/12/31 08:18:41;;;;;;;6.37;2.47;;;27.70;90.30;;;;;;5051424;28;20377;-89
2022/12/31 08:21:34;;;;;;;8.70;2.38;;;27.30;91.10;;;;;;5051177;28;20372;-89
2022/12/31 08:24:18;;;;;;;6.82;2.10;;;26.70;92.00;;;;;;5051342;28;20502;-89
2022/12/31 08:26:51;;;;;;;7.35;1.80;;;26.00;93.20;;;;;;5050908;28;20375;-90
2022/12/31 08:30:06;;;;;;;6.35;1.73;;;25.60;93.90;;;;;;5050747;28;20465;-88
2022/12/31 08:32:45;;;;;;;6.72;2.10;;;25.30;94.70;;;;;;4969299;28;20391;-86
2022/12/31 08:35:20;;;;;;;6.72;1.85;;;25.10;95.30;;;;;;4969921;28;20477;-88
2022/12/31 08:37:59;;;;;;;7.32;2.20;;;25.00;96.00;;;;;;4969826;28;20379;-88
2022/12/31 08:40:32;;;;;;;8.75;2.10;;;24.90;96.50;;;;;;4970205;28;20388;-89
2022/12/31 08:43:17;;;;;;;7.20;2.00;;;24.80;97.10;;;;;;4970677;28;20429;-89
2022/12/31 08:45:50;;;;;;;7.30;2.00;;;24.70;97.50;;;;;;4970057;28;20383;-89
2022/12/31 08:48:31;;;;;;;10.60;2.45;;;24.70;98.00;;;;;;4970366;28;20919;-88
2022/12/31 08:50:58;;;;;;;8.35;2.40;;;24.60;98.80;;;;;;4970488;28;20467;-88
2022/12/31 08:53:25;;;;;;;7.53;2.20;;;24.50;99.20;;;;;;4969392;28;20506;-88
2022/12/31 08:56:26;;;;;;;9.68;2.42;;;24.40;99.50;;;;;;4981706;28;20392;-89
2022/12/31 08:59:14;;;;;;;8.07;2.28;;;24.30;99.90;;;;;;4968803;28;20970;-91
2022/12/31 09:01:55;;;;;;;8.60;2.40;;;24.30;99.90;;;;;;4969215;28;20382;-88
2022/12/31 09:04:46;;;;;;;10.40;2.58;;;24.20;99.90;;;;;;4986500;28;20427;-89
2022/12/31 09:07:16;;;;;;;9.60;2.80;;;24.20;99.90;;;;;;4986021;28;20397;-88
2022/12/31 09:09:53;;;;;;;10.60;2.70;;;24.00;99.90;;;;;;5035294;28;20391;-90
2022/12/31 09:13:04;;;;;;;9.10;2.40;;;24.00;99.90;;;;;;5050655;28;20959;-89
2022/12/31 09:15:59;;;;;;;10.70;2.60;;;23.90;99.90;;;;;;4972447;28;20480;-88
2022/12/31 09:18:27;;;;;;;11.63;2.63;;;23.80;99.90;;;;;;4988253;28;20900;-88
2022/12/31 09:20:54;;;;;;;10.17;2.70;;;23.60;99.90;;;;;;4988523;28;20403;-87
2022/12/31 09:23:21;;;;;;;10.13;2.78;;;23.50;99.90;;;;;;4986688;28;20429;-89
2022/12/31 09:26:09;;;;;;;9.93;2.80;;;23.40;99.90;;;;;;4978333;28;20459;-89
2022/12/31 09:29:19;;;;;;;13.75;2.90;;;23.30;99.90;;;;;;4987376;28;20918;-91
2022/12/31 09:32:01;;;;;;;12.98;3.00;;;23.10;99.90;;;;;;4939047;28;20399;-91
2022/12/31 09:34:54;;;;;;;11.63;3.10;;;23.10;99.90;;;;;;4953522;29;20780;-90
2022/12/31 09:37:47;;;;;;;12.97;3.50;;;23.10;99.90;;;;;;4934445;29;20924;-88
2022/12/31 09:40:23;;;;;;;10.25;2.90;;;23.10;99.90;;;;;;4934314;29;20505;-91
2022/12/31 09:43:25;;;;;;;11.85;3.17;;;23.10;99.90;;;;;;4936235;29;20426;-89
2022/12/31 09:46:10;;;;;;;14.20;3.50;;;23.10;99.90;;;;;;4940908;29;20453;-90
2022/12/31 09:49:04;;;;;;;15.30;3.33;;;23.10;99.90;;;;;;4935070;29;20810;-90
2022/12/31 09:51:52;;;;;;;15.50;3.42;;;23.10;99.90;;;;;;4933185;28;20421;-89
2022/12/31 09:54:22;;;;;;;12.67;3.60;;;23.10;99.90;;;;;;4941765;29;20437;-89
2022/12/31 09:57:22;;;;;;;14.15;3.38;;;23.20;99.90;;;;;;4933675;29;20860;-89
2022/12/31 10:00:10;;;;;;;15.73;3.92;;;23.20;99.90;;;;;;4911114;29;20407;-89
2022/12/31 10:03:18;;;;;;;13.85;3.50;;;23.20;99.90;;;;;;4955435;28;20483;-89
2022/12/31 10:06:14;;;;;;;15.48;3.60;;;23.30;99.90;;;;;;4914526;29;20399;-89
2022/12/31 10:09:01;;;;;;;15.68;3.83;;;23.30;99.90;;;;;;4913350;29;21049;-90
2022/12/31 10:11:46;;;;;;;13.43;3.33;;;23.20;99.90;;;;;;4914059;29;20486;-90
2022/12/31 10:14:33;;;;;;;15.13;3.30;;;23.20;99.90;;;;;;4913357;29;20399;-90
2022/12/31 10:17:22;;;;;;;13.27;3.55;;;23.20;99.90;;;;;;4913426;29;20396;-90
2022/12/31 10:20:15;;;;;;;14.00;3.33;;;23.10;99.90;;;;;;4913765;29;20388;-90
2022/12/31 10:23:24;;;;;;;14.00;3.30;;;23.10;99.90;;;;;;4914201;29;20769;-89
2022/12/31 10:26:18;;;;;;;14.57;3.60;;;23.00;99.90;;;;;;4914163;29;20642;-90
2022/12/31 10:28:57;;;;;;;15.07;3.50;;;22.90;99.90;;;;;;4913077;29;20415;-88
2022/12/31 10:32:03;;;;;;;14.60;3.55;;;22.90;99.90;;;;;;4939889;28;20390;-89
2022/12/31 10:35:01;;;;;;;15.57;3.50;;;22.80;99.90;;;;;;4951981;28;20382;-90
2022/12/31 10:37:43;;;;;;;16.60;3.77;;;22.80;99.90;;;;;;4962656;28;20409;-89
2022/12/31 10:40:25;;;;;;;23.25;4.47;;;22.80;99.90;;;;;;4969807;28;20386;-90
2022/12/31 10:43:01;;;;;;;16.42;4.40;;;22.80;99.90;;;;;;5022565;28;20473;-89
2022/12/31 10:45:40;;;;;;;17.58;5.85;;;22.80;99.90;;;;;;5072328;28;20416;-89
2022/12/31 10:48:25;;;;;;;19.30;5.68;;;22.80;99.90;;;;;;5071266;28;20397;-89
2022/12/31 10:50:58;;;;;;;17.38;5.03;;;22.80;99.90;;;;;;5052636;28;20397;-90
2022/12/31 10:53:28;;;;;;;17.33;5.13;;;22.80;99.90;;;;;;5052486;28;20376;-90
2022/12/31 10:56:33;;;;;;;17.10;5.03;;;22.80;99.90;;;;;;5052510;28;20380;-88
2022/12/31 10:59:41;;;;;;;20.73;5.57;;;22.70;99.90;;;;;;5067525;28;20374;-90
2022/12/31 11:02:26;;;;;;;20.98;5.43;;;22.70;99.90;;;;;;4990065;28;20451;-90
2022/12/31 11:05:37;;;;;;;19.42;5.30;;;22.80;99.90;;;;;;4964027;28;20797;-89
2022/12/31 11:08:57;;;;;;;18.50;5.20;;;22.70;99.90;;;;;;4951727;29;20424;-89
2022/12/31 11:12:00;;;;;;;17.77;5.60;;;22.70;99.90;;;;;;4894525;29;20493;-89
2022/12/31 11:14:48;;;;;;;19.90;6.10;;;22.60;99.90;;;;;;4883906;29;20742;-90
2022/12/31 11:17:48;;;;;;;18.25;5.03;;;22.60;99.90;;;;;;4893837;29;20874;-89
2022/12/31 11:20:26;;;;;;;19.50;5.10;;;22.70;99.90;;;;;;4891113;29;20431;-89
2022/12/31 11:22:56;;;;;;;19.13;4.85;;;22.60;99.90;;;;;;4894209;29;20822;-89
2022/12/31 11:25:33;;;;;;;19.50;5.07;;;22.60;99.90;;;;;;4894540;29;20425;-89
2022/12/31 11:28:33;;;;;;;19.40;4.88;;;22.60;99.90;;;;;;4894064;29;20504;-90
2022/12/31 11:31:24;;;;;;;21.23;5.07;;;22.40;99.90;;;;;;4885874;29;20489;-90
2022/12/31 11:34:03;;;;;;;19.75;4.63;;;22.30;99.90;;;;;;4893567;29;20518;-89
2022/12/31 11:36:59;;;;;;;18.53;4.60;;;22.20;99.90;;;;;;4943234;28;20472;-89
2022/12/31 11:39:42;;;;;;;19.40;5.03;;;22.20;99.90;;;;;;4953957;28;20381;-89
2022/12/31 11:42:41;;;;;;;19.13;5.15;;;22.20;99.90;;;;;;4961304;28;20751;-90
2022/12/31 11:45:35;;;;;;;20.45;5.35;;;22.10;99.90;;;;;;5001954;28;20446;-89
2022/12/31 11:48:18;;;;;;;21.17;5.18;;;22.10;99.90;;;;;;5051203;28;20405;-89
2022/12/31 11:51:35;;;;;;;18.63;5.25;;;22.10;99.90;;;;;;5071666;28;20362;-89
2022/12/31 11:54:20;;;;;;;20.52;5.50;;;22.10;99.90;;;;;;4964461;28;20426;-89
2022/12/31 11:57:01;;;;;;;21.75;5.82;;;22.00;99.90;;;;;;4979772;28;20487;-89
2022/12/31 11:59:28;;;;;;;19.05;5.78;;;22.10;99.90;;;;;;4971557;28;20422;-89
2022/12/31 12:02:17;;;;;;;19.95;5.78;;;22.10;99.90;;;;;;4970725;28;20795;-89
2022/12/31 12:04:47;;;;;;;19.58;5.78;;;22.20;99.90;;;;;;4961775;28;20428;-89
2022/12/31 12:07:15;;;;;;;22.23;6.20;;;22.20;99.90;;;;;;4976391;28;20473;-89
2022/12/31 12:09:44;;;;;;;17.73;6.00;;;22.20;99.90;;;;;;4980384;28;20394;-89
2022/12/31 12:12:12;;;;;;;20.55;6.28;;;22.20;99.90;;;;;;4969843;28;20386;-89
2022/12/31 12:14:42;;;;;;;23.98;6.72;;;22.30;99.90;;;;;;4978992;28;20925;-88
2022/12/31 12:17:15;;;;;;;21.05;6.97;;;22.30;99.90;;;;;;4975836;28;20491;-89
2022/12/31 12:19:45;;;;;;;19.05;6.97;;;22.30;99.90;;;;;;4978447;28;20386;-89
2022/12/31 12:22:20;;;;;;;22.27;8.93;;;22.30;99.90;;;;;;4981652;28;20438;-89
2022/12/31 12:25:12;;;;;;;25.03;10.40;;;22.30;99.90;;;;;;4969953;28;20489;-89
2022/12/31 12:27:39;;;;;;;27.00;9.75;;;22.30;99.90;;;;;;4969761;28;20403;-89
2022/12/31 12:30:18;;;;;;;22.20;8.90;;;22.30;99.90;;;;;;5022065;28;20500;-89
2022/12/31 12:32:58;;;;;;;21.85;6.68;;;22.20;99.90;;;;;;5051472;28;20475;-89
2022/12/31 12:35:34;;;;;;;20.20;5.80;;;22.20;99.90;;;;;;5069086;28;20370;-89
2022/12/31 12:38:07;;;;;;;18.33;5.30;;;22.20;99.90;;;;;;5068209;28;20540;-89
2022/12/31 12:40:35;;;;;;;21.02;5.50;;;22.10;99.90;;;;;;5050953;28;20386;-90
2022/12/31 12:43:02;;;;;;;18.93;5.17;;;22.10;99.90;;;;;;5038636;28;20384;-89
2022/12/31 12:45:42;;;;;;;21.60;4.90;;;22.10;99.90;;;;;;5050901;28;20417;-89
2022/12/31 12:48:39;;;;;;;20.13;4.95;;;22.10;99.90;;;;;;5068426;28;20425;-89
2022/12/31 12:52:00;;;;;;;21.55;4.90;;;22.20;99.90;;;;;;5051659;28;20371;-88
2022/12/31 12:55:04;;;;;;;24.55;5.18;;;22.20;99.90;;;;;;5063504;28;20371;-89
2022/12/31 12:58:13;;;;;;;18.80;4.88;;;22.20;99.90;;;;;;5052334;28;20387;-88
2022/12/31 13:01:13;;;;;;;18.92;4.90;;;22.20;99.90;;;;;;5054295;28;20467;-89
2022/12/31 13:04:01;;;;;;;17.07;4.67;;;22.20;99.90;;;;;;5063028;28;20378;-88
2022/12/31 13:06:39;;;;;;;20.83;7.10;;;22.20;99.90;;;;;;5048792;28;20478;-89
2022/12/31 13:09:18;;;;;;;25.77;10.40;;;22.10;99.90;;;;;;5047482;28;20513;-89
2022/12/31 13:12:13;;;;;;;22.25;9.00;;;22.10;99.90;;;;;;5032539;28;20376;-87
2022/12/31 13:14:49;;;;;;;21.38;7.10;;;22.10;99.90;;;;;;5040853;28;20484;-89
2022/12/31 13:17:38;;;;;;;18.60;5.90;;;22.10;99.90;;;;;;5037036;28;20382;-92
2022/12/31 13:20:33;;;;;;;19.73;5.93;;;22.00;99.90;;;;;;5050559;28;20374;-89
2022/12/31 13:23:11;;;;;;;19.17;6.43;;;22.00;99.90;;;;;;5062635;28;20888;-89
2022/12/31 13:25:44;;;;;;;20.33;6.90;;;22.00;99.90;;;;;;5026532;28;20405;-91
2022/12/31 13:28:15;;;;;;;20.20;6.03;;;21.90;99.90;;;;;;5050792;28;20405;-89
2022/12/31 13:30:52;;;;;;;18.60;5.90;;;21.90;99.90;;;;;;5051633;28;20374;-89
2022/12/31 13:33:28;;;;;;;16.98;5.78;;;21.80;99.90;;;;;;5068605;28;20719;-88
2022/12/31 13:36:02;;;;;;;16.50;5.75;;;21.70;99.90;;;;;;5069280;28;20374;-90
2022/12/31 13:38:46;;;;;;;13.87;5.67;;;21.70;99.90;;;;;;5068915;28;20378;-89
2022/12/31 13:41:26;;;;;;;15.48;5.90;;;21.60;99.90;;;;;;5069076;28;20366;-91
2022/12/31 13:43:57;;;;;;;15.40;6.10;;;21.60;99.90;;;;;;5051577;28;20382;-90